Time;durP1;ratioP1;P1;durP2;ratioP2;P2;SDS_P1;SDS_P2;PMS_P1;PMS_P2;Temp;Humidity;BMP_temperature;BMP_pressure;BME280_temperature;BME280_humidity;BME280_pressure;Samples;Min_cycle;Max_cycle;Signal;HPM_P1;HPM_P2
2022/11/05 00:10:35;;;;;;;;;;;6.90;99.90;;;;;;5136047;27;20439;-85
2022/11/05 00:19:25;;;;;;;;;;;6.80;99.90;;;;;;5135892;27;20287;-86
2022/11/05 00:25:15;;;;;;;;;;;6.60;99.90;;;;;;5126163;27;19917;-85
2022/11/05 00:28:01;;;;;;;;;;;6.50;99.90;;;;;;5120551;27;20015;-85
2022/11/05 00:30:44;;;;;;;;;;;6.80;99.90;;;;;;5135839;27;19914;-85
2022/11/05 00:33:29;;;;;;;;;;;6.60;99.90;;;;;;5120161;27;19945;-85
2022/11/05 00:36:13;;;;;;;;;;;6.50;99.90;;;;;;5123002;27;19915;-85
2022/11/05 00:38:57;;;;;;;;;;;6.50;99.90;;;;;;5123142;27;19923;-85
2022/11/05 00:41:41;;;;;;;;;;;6.50;99.90;;;;;;5119873;27;19979;-85
2022/11/05 00:50:32;;;;;;;;;;;6.50;99.90;;;;;;5135366;27;19974;-85
2022/11/05 00:53:16;;;;;;;;;;;6.50;99.90;;;;;;5135909;27;20283;-85
2022/11/05 00:56:01;;;;;;;;;;;6.50;99.90;;;;;;5123448;27;19944;-85
2022/11/05 00:58:45;;;;;;;;;;;6.50;99.90;;;;;;5119710;27;20047;-85
2022/11/05 01:01:29;;;;;;;;;;;6.50;99.90;;;;;;5119663;27;19918;-86
2022/11/05 01:04:13;;;;;;;;;;;6.50;99.90;;;;;;5135460;27;19988;-85
2022/11/05 01:06:58;;;;;;;;;;;6.40;99.90;;;;;;5119973;27;20014;-85
2022/11/05 01:09:42;;;;;;;;;;;6.40;99.90;;;;;;5119512;27;19926;-85
2022/11/05 01:12:26;;;;;;;;;;;6.40;99.90;;;;;;5134778;27;19920;-85
2022/11/05 01:15:10;;;;;;;;;;;8.80;99.90;;;;;;5135516;27;20325;-85
2022/11/05 01:17:54;;;;;;;;;;;6.40;99.90;;;;;;5119449;27;19953;-85
2022/11/05 01:20:39;;;;;;;;;;;6.50;99.90;;;;;;5134810;27;19919;-86
2022/11/05 01:23:23;;;;;;;;;;;6.40;99.90;;;;;;5135434;27;19956;-85
2022/11/05 01:26:07;;;;;;;;;;;6.40;99.90;;;;;;5114806;27;20056;-85
2022/11/05 01:28:51;;;;;;;;;;;;;;;;;;5118989;27;19926;-85
2022/11/05 01:31:36;;;;;;;;;;;6.40;99.90;;;;;;5121161;27;19950;-85
2022/11/05 01:34:20;;;;;;;;;;;6.40;99.90;;;;;;5109977;27;19918;-85
2022/11/05 01:37:05;;;;;;;;;;;6.30;99.90;;;;;;5120428;27;19922;-85
2022/11/05 01:39:49;;;;;;;;;;;6.30;99.90;;;;;;5134333;27;19960;-86
2022/11/05 01:42:33;;;;;;;;;;;6.20;99.90;;;;;;5134746;27;19917;-86
2022/11/05 01:45:19;;;;;;;;;;;6.20;99.90;;;;;;5119177;27;19914;-85
2022/11/05 01:48:06;;;;;;;;;;;6.20;99.90;;;;;;5134722;27;19922;-85
2022/11/05 01:51:08;;;;;;;;;;;6.10;99.90;;;;;;5118720;27;19926;-85
2022/11/05 01:53:56;;;;;;;;;;;6.10;99.90;;;;;;5118427;27;19952;-85
2022/11/05 01:56:42;;;;;;;;;;;6.10;99.90;;;;;;5134230;27;19932;-85
2022/11/05 01:59:31;;;;;;;;;;;6.10;99.90;;;;;;5134601;27;19914;-85
2022/11/05 02:02:16;;;;;;;;;;;6.00;99.90;;;;;;5118746;27;19960;-85
2022/11/05 02:05:02;;;;;;;;;;;6.00;99.90;;;;;;5118379;27;19971;-85
2022/11/05 02:07:47;;;;;;;;;;;6.00;99.90;;;;;;5118347;27;19922;-85
2022/11/05 02:10:31;;;;;;;;;;;6.00;99.90;;;;;;5108986;27;19971;-85
2022/11/05 02:13:16;;;;;;;;;;;5.90;99.90;;;;;;5118720;27;19915;-85
2022/11/05 02:16:26;;;;;;;;;;;5.80;99.90;;;;;;5123997;27;19922;-85
2022/11/05 02:19:13;;;;;;;;;;;5.90;99.90;;;;;;5113712;28;19914;-85
2022/11/05 02:22:13;;;;;;;;;;;5.90;99.90;;;;;;5099933;27;19969;-85
2022/11/05 02:25:03;;;;;;;;;;;5.90;99.90;;;;;;5111604;28;19915;-85
2022/11/05 02:27:54;;;;;;;;;;;5.90;99.90;;;;;;5128854;27;19968;-85
2022/11/05 02:30:46;;;;;;;;;;;5.90;99.90;;;;;;5134032;27;19913;-85
2022/11/05 02:33:41;;;;;;;;;;;5.90;99.90;;;;;;5111708;28;19915;-85
2022/11/05 02:36:25;;;;;;;;;;;5.90;99.90;;;;;;5114313;27;19913;-85
2022/11/05 02:39:09;;;;;;;;;;;5.90;99.90;;;;;;5118381;27;19932;-86
2022/11/05 02:42:04;;;;;;;;;;;6.00;99.90;;;;;;5117649;28;20498;-85
2022/11/05 02:44:59;;;;;;;;;;;5.90;99.90;;;;;;5117592;27;20311;-85
2022/11/05 02:47:46;;;;;;;;;;;5.90;99.90;;;;;;5133411;27;19969;-86
2022/11/05 02:50:39;;;;;;;;;;;6.00;99.90;;;;;;5127851;27;20321;-85
2022/11/05 02:53:32;;;;;;;;;;;6.00;99.90;;;;;;5129216;27;20389;-85
2022/11/05 02:56:19;;;;;;;;;;;6.00;99.90;;;;;;5118299;28;20271;-85
2022/11/05 02:59:04;;;;;;;;;;;6.00;99.90;;;;;;5117606;28;20385;-85
2022/11/05 03:01:49;;;;;;;;;;;6.00;99.90;;;;;;5117526;28;19917;-85
2022/11/05 03:04:33;;;;;;;;;;;6.00;99.90;;;;;;5133640;28;19956;-85
2022/11/05 03:07:36;;;;;;;;;;;6.00;99.90;;;;;;5117926;28;19929;-85
2022/11/05 03:10:36;;;;;;;;;;;6.00;99.90;;;;;;5117785;28;19930;-85
2022/11/05 03:13:31;;;;;;;;;;;6.00;99.90;;;;;;5118189;28;20006;-85
2022/11/05 03:16:31;;;;;;;;;;;5.90;99.90;;;;;;5118046;28;19930;-85
2022/11/05 03:19:19;;;;;;;;;;;6.00;99.90;;;;;;5117728;28;20377;-85
2022/11/05 03:22:09;;;;;;;;;;;5.90;99.90;;;;;;5132965;28;19914;-85
2022/11/05 03:24:59;;;;;;;;;;;6.00;99.90;;;;;;5109222;28;19914;-84
2022/11/05 03:27:45;;;;;;;;;;;5.90;99.90;;;;;;5130275;28;19922;-85
2022/11/05 03:30:30;;;;;;;;;;;6.00;99.90;;;;;;5133433;28;19914;-85
2022/11/05 03:33:17;;;;;;;;;;;5.90;99.90;;;;;;5133116;27;19914;-85
2022/11/05 03:36:04;;;;;;;;;;;6.00;99.90;;;;;;5136710;27;19914;-85
2022/11/05 03:38:50;;;;;;;;;;;5.90;99.90;;;;;;5121874;27;19922;-85
2022/11/05 03:41:36;;;;;;;;;;;5.90;99.90;;;;;;5132710;27;19915;-85
2022/11/05 03:44:24;;;;;;;;;;;6.00;99.90;;;;;;5131212;27;19926;-85
2022/11/05 03:47:11;;;;;;;;;;;6.00;99.90;;;;;;5120857;27;19913;-85
2022/11/05 03:50:19;;;;;;;;;;;6.00;99.90;;;;;;5120936;27;20004;-85
2022/11/05 03:53:10;;;;;;;;;;;5.90;99.90;;;;;;5136308;27;19971;-85
2022/11/05 03:55:54;;;;;;;;;;;5.90;99.90;;;;;;5120955;27;19929;-86
2022/11/05 03:58:42;;;;;;;;;;;5.90;99.90;;;;;;5136829;27;20330;-84
2022/11/05 04:01:27;;;;;;;;;;;5.90;99.90;;;;;;5136711;27;19945;-85
2022/11/05 04:04:11;;;;;;;;;;;5.90;99.90;;;;;;5120748;27;19918;-85
2022/11/05 04:19:08;;;;;;;;;;;5.80;99.90;;;;;;5122110;27;19960;-85
2022/11/05 04:24:55;;;;;;;;;;;5.80;99.90;;;;;;5128417;27;20268;-85
2022/11/05 04:27:39;;;;;;;;;;;5.80;99.90;;;;;;5117258;27;19930;-85
2022/11/05 04:30:23;;;;;;;;;;;5.80;99.90;;;;;;5121002;27;19961;-85
2022/11/05 04:33:15;;;;;;;;;;;5.80;99.90;;;;;;5135662;27;19914;-85
2022/11/05 04:35:59;;;;;;;;;;;5.70;99.90;;;;;;5135804;27;19914;-87
2022/11/05 04:38:43;;;;;;;;;;;5.70;99.90;;;;;;5136177;27;19922;-84
2022/11/05 04:41:27;;;;;;;;;;;5.70;99.90;;;;;;5120446;27;19918;-85
2022/11/05 04:44:11;;;;;;;;;;;5.70;99.90;;;;;;5135535;27;19919;-85
2022/11/05 04:46:56;;;;;;;;;;;5.70;99.90;;;;;;5121791;27;20497;-85
2022/11/05 04:49:40;;;;;;;;;;;5.70;99.90;;;;;;5135716;27;19940;-85
2022/11/05 04:52:24;;;;;;;;;;;5.70;99.90;;;;;;5119856;27;19966;-84
2022/11/05 04:55:08;;;;;;;;;;;5.60;99.90;;;;;;5119681;27;19914;-85
2022/11/05 04:57:53;;;;;;;;;;;5.60;99.90;;;;;;5135939;27;19913;-85
2022/11/05 05:00:37;;;;;;;;;;;5.60;99.90;;;;;;5135783;27;19934;-85
2022/11/05 05:03:21;;;;;;;;;;;5.70;99.90;;;;;;5135078;27;20496;-85
2022/11/05 05:06:06;;;;;;;;;;;5.60;99.90;;;;;;5135237;27;20015;-85
2022/11/05 05:08:50;;;;;;;;;;;5.60;99.90;;;;;;5119723;27;20017;-84
2022/11/05 05:11:34;;;;;;;;;;;5.60;99.90;;;;;;5135475;27;20378;-86
2022/11/05 05:14:18;;;;;;;;;;;5.60;99.90;;;;;;5101901;28;19919;-85
2022/11/05 05:17:03;;;;;;;;;;;5.60;99.90;;;;;;5116964;27;19957;-85
2022/11/05 05:22:50;;;;;;;;;;;5.50;99.90;;;;;;5123821;27;19981;-85
2022/11/05 05:25:34;;;;;;;;;;;5.60;99.90;;;;;;5121227;27;19956;-85
2022/11/05 05:28:19;;;;;;;;;;;5.50;99.90;;;;;;5106852;27;20027;-85
2022/11/05 05:31:03;;;;;;;;;;;5.60;99.90;;;;;;5119429;27;19964;-85
2022/11/05 05:33:47;;;;;;;;;;;5.60;99.90;;;;;;5135311;27;19914;-85
2022/11/05 05:36:31;;;;;;;;;;;5.50;99.90;;;;;;5134481;27;20373;-85
2022/11/05 05:39:16;;;;;;;;;;;5.50;99.90;;;;;;5134321;27;19961;-86
2022/11/05 05:42:00;;;;;;;;;;;5.50;99.90;;;;;;5135078;27;20037;-85
2022/11/05 05:44:44;;;;;;;;;;;5.40;99.90;;;;;;5119193;27;19918;-85
2022/11/05 05:47:28;;;;;;;;;;;5.50;99.90;;;;;;5134244;27;19918;-85
2022/11/05 05:50:12;;;;;;;;;;;5.40;99.90;;;;;;5134347;27;19953;-85
2022/11/05 05:52:56;;;;;;;;;;;5.40;99.90;;;;;;5134511;27;20002;-85
2022/11/05 05:55:41;;;;;;;;;;;5.40;99.90;;;;;;5119135;27;19918;-85
2022/11/05 05:58:26;;;;;;;;;;;5.40;99.90;;;;;;5117952;27;19925;-85
2022/11/05 06:01:11;;;;;;;;;;;5.40;99.90;;;;;;5118723;27;19914;-87
2022/11/05 06:03:55;;;;;;;;;;;5.40;99.90;;;;;;5118956;27;19928;-85
2022/11/05 06:06:39;;;;;;;;;;;5.40;99.90;;;;;;5118790;27;20275;-85
2022/11/05 06:09:24;;;;;;;;;;;5.40;99.90;;;;;;5118228;27;20034;-85
2022/11/05 06:12:08;;;;;;;;;;;5.40;99.90;;;;;;5134221;27;19934;-85
2022/11/05 06:14:52;;;;;;;;;;;5.40;99.90;;;;;;5105937;28;19960;-85
2022/11/05 06:17:36;;;;;;;;;;;5.50;99.90;;;;;;5121307;27;19956;-85
2022/11/05 06:20:21;;;;;;;;;;;5.50;99.90;;;;;;5118084;27;20271;-85
2022/11/05 06:23:05;;;;;;;;;;;5.60;99.90;;;;;;5117978;27;20015;-85
2022/11/05 06:25:49;;;;;;;;;;;5.60;99.90;;;;;;5110277;27;19992;-85
2022/11/05 06:28:33;;;;;;;;;;;5.50;99.90;;;;;;5117934;27;19930;-84
2022/11/05 06:31:17;;;;;;;;;;;5.60;99.90;;;;;;5130992;27;19915;-84
2022/11/05 06:34:01;;;;;;;;;;;5.60;99.90;;;;;;5115670;27;20279;-84
2022/11/05 06:36:45;;;;;;;;;;;5.60;99.90;;;;;;5151088;27;19949;-84
2022/11/05 06:39:30;;;;;;;;;;;5.60;99.90;;;;;;5133825;27;19926;-84
2022/11/05 06:42:14;;;;;;;;;;;5.60;99.90;;;;;;5152178;27;19932;-84
2022/11/05 06:44:58;;;;;;;;;;;5.60;99.90;;;;;;5133670;27;19926;-84
2022/11/05 06:47:42;;;;;;;;;;;5.70;99.90;;;;;;5136039;27;20401;-84
2022/11/05 06:50:27;;;;;;;;;;;5.60;99.90;;;;;;5151253;27;19955;-84
2022/11/05 06:53:11;;;;;;;;;;;5.60;99.90;;;;;;5133456;27;19963;-84
2022/11/05 06:55:55;;;;;;;;;;;5.50;99.90;;;;;;5136268;27;19959;-84
2022/11/05 06:58:39;;;;;;;;;;;5.60;99.90;;;;;;5129944;27;19963;-84
2022/11/05 07:01:23;;;;;;;;;;;5.60;99.90;;;;;;5117013;27;19918;-84
2022/11/05 07:04:10;;;;;;;;;;;5.60;99.90;;;;;;5102750;28;20011;-84
2022/11/05 07:06:54;;;;;;;;;;;5.50;99.90;;;;;;5138233;27;19914;-84
2022/11/05 07:09:41;;;;;;;;;;;5.60;99.90;;;;;;5124635;27;20425;-84
2022/11/05 07:12:25;;;;;;;;;;;5.50;99.90;;;;;;5114832;27;20009;-84
2022/11/05 07:15:10;;;;;;;;;;;5.50;99.90;;;;;;5119644;27;19994;-84
2022/11/05 07:17:58;;;;;;;;;;;5.60;99.90;;;;;;5148980;27;20470;-84
2022/11/05 07:20:42;;;;;;;;;;;5.60;99.90;;;;;;5129914;27;19914;-84
2022/11/05 07:23:27;;;;;;;;;;;5.60;99.90;;;;;;5150882;27;19914;-85
2022/11/05 07:26:11;;;;;;;;;;;5.70;99.90;;;;;;5107624;27;19962;-87
2022/11/05 07:28:56;;;;;;;;;;;5.80;99.90;;;;;;5121979;27;20462;-85
2022/11/05 07:31:40;;;;;;;;;;;5.80;99.90;;;;;;5102671;28;19961;-84
2022/11/05 07:34:24;;;;;;;;;;;5.80;99.90;;;;;;5132070;27;19918;-86
2022/11/05 07:37:08;;;;;;;;;;;5.80;99.90;;;;;;5137396;27;19957;-84
2022/11/05 07:39:53;;;;;;;;;;;5.80;99.90;;;;;;5136780;27;20004;-85
2022/11/05 07:42:40;;;;;;;;;;;6.10;99.90;;;;;;5126371;27;19983;-84
2022/11/05 07:45:25;;;;;;;;;;;6.10;99.90;;;;;;5145923;27;19970;-84
2022/11/05 07:48:09;;;;;;;;;;;6.20;99.90;;;;;;5148370;27;19967;-84
2022/11/05 07:50:53;;;;;;;;;;;6.20;99.90;;;;;;5136448;27;20423;-84
2022/11/05 07:53:37;;;;;;;;;;;6.20;99.90;;;;;;5135863;27;19914;-84
2022/11/05 07:56:22;;;;;;;;;;;6.30;99.90;;;;;;5120898;27;19924;-84
2022/11/05 07:59:06;;;;;;;;;;;6.30;99.90;;;;;;5109745;27;19961;-84
2022/11/05 08:01:50;;;;;;;;;;;6.50;99.90;;;;;;5141094;27;19918;-85
2022/11/05 08:04:34;;;;;;;;;;;6.40;99.90;;;;;;5124585;27;19918;-84
2022/11/05 08:07:18;;;;;;;;;;;6.60;99.90;;;;;;5139729;27;19917;-83
2022/11/05 08:10:03;;;;;;;;;;;6.60;99.90;;;;;;5142193;27;19922;-84
2022/11/05 08:12:47;;;;;;;;;;;6.60;99.90;;;;;;5138878;27;19914;-84
2022/11/05 08:15:31;;;;;;;;;;;6.70;99.90;;;;;;5140111;27;19918;-85
2022/11/05 08:18:16;;;;;;;;;;;6.90;99.90;;;;;;5141192;27;20007;-84
2022/11/05 08:21:02;;;;;;;;;;;6.90;99.90;;;;;;5109010;27;19925;-84
2022/11/05 08:23:45;;;;;;;;;;;6.90;99.90;;;;;;5141312;27;19959;-84
2022/11/05 08:26:30;;;;;;;;;;;7.00;99.90;;;;;;5093522;27;19932;-83
2022/11/05 08:29:14;;;;;;;;;;;7.20;99.90;;;;;;5120522;27;19927;-84
2022/11/05 08:31:58;;;;;;;;;;;7.30;99.90;;;;;;5120872;27;20407;-85
2022/11/05 08:34:42;;;;;;;;;;;7.40;99.90;;;;;;5119983;27;19918;-84
2022/11/05 08:37:26;;;;;;;;;;;7.40;99.90;;;;;;5136045;27;20321;-84
2022/11/05 08:40:11;;;;;;;;;;;7.50;99.90;;;;;;5135339;27;19962;-84
2022/11/05 08:42:56;;;;;;;;;;;7.90;99.90;;;;;;5104266;27;20876;-84
2022/11/05 08:45:40;;;;;;;;;;;8.10;99.90;;;;;;5121870;27;20382;-83
2022/11/05 08:48:24;;;;;;;;;;;8.00;99.90;;;;;;5141930;27;19960;-83
2022/11/05 08:51:08;;;;;;;;;;;8.30;99.90;;;;;;5133625;27;20397;-84
2022/11/05 08:53:53;;;;;;;;;;;8.60;99.90;;;;;;5127976;27;19965;-85
2022/11/05 08:56:37;;;;;;;;;;;8.80;99.90;;;;;;5145339;27;20373;-85
2022/11/05 08:59:21;;;;;;;;;;;8.80;99.90;;;;;;5131486;27;20010;-83
2022/11/05 09:02:05;;;;;;;;;;;9.00;99.90;;;;;;5142803;27;19963;-84
2022/11/05 09:04:50;;;;;;;;;;;9.50;99.90;;;;;;5131839;27;19914;-84
2022/11/05 09:07:34;;;;;;;;;;;9.70;99.90;;;;;;5144607;27;19919;-85
2022/11/05 09:10:18;;;;;;;;;;;10.10;99.90;;;;;;5144851;27;19999;-84
2022/11/05 09:13:03;;;;;;;;;;;10.20;99.90;;;;;;5131666;27;20266;-84
2022/11/05 09:15:48;;;;;;;;;;;10.20;99.90;;;;;;5124837;27;19950;-85
2022/11/05 09:18:32;;;;;;;;;;;10.70;99.90;;;;;;5137716;27;19913;-84
2022/11/05 09:21:17;;;;;;;;;;;10.70;99.90;;;;;;5139080;27;19914;-84
2022/11/05 09:24:01;;;;;;;;;;;11.10;99.90;;;;;;5135600;27;19922;-84
2022/11/05 09:26:45;;;;;;;;;;;11.20;99.90;;;;;;5123357;27;19919;-84
2022/11/05 09:29:29;;;;;;;;;;;11.30;99.90;;;;;;5119508;27;20450;-84
2022/11/05 09:32:17;;;;;;;;;;;11.80;99.90;;;;;;5134572;27;20006;-84
2022/11/05 09:35:01;;;;;;;;;;;12.00;99.90;;;;;;5134675;27;20533;-84
2022/11/05 09:37:45;;;;;;;;;;;12.10;99.90;;;;;;5110084;27;20040;-84
2022/11/05 09:40:31;;;;;;;;;;;12.30;99.90;;;;;;5119635;27;19918;-84
2022/11/05 09:43:17;;;;;;;;;;;12.20;99.90;;;;;;5134840;27;19914;-84
2022/11/05 09:46:02;;;;;;;;;;;;;;;;;;5134397;27;20720;-84
2022/11/05 09:48:48;;;;;;;;;;;11.90;99.90;;;;;;5122265;27;19922;-85
2022/11/05 09:51:34;;;;;;;;;;;11.50;99.90;;;;;;5134667;27;19973;-84
2022/11/05 09:54:21;;;;;;;;;;;11.50;99.90;;;;;;5119084;27;19937;-84
2022/11/05 09:57:06;;;;;;;;;;;11.30;99.90;;;;;;5134095;27;20380;-83
2022/11/05 09:59:52;;;;;;;;;;;11.30;99.90;;;;;;5133875;27;19968;-84
2022/11/05 10:02:44;;;;;;;;;;;11.20;99.90;;;;;;5134711;27;19914;-84
2022/11/05 10:05:30;;;;;;;;;;;11.10;99.90;;;;;;5134377;27;20390;-84
2022/11/05 10:08:20;;;;;;;;;;;11.10;99.90;;;;;;5134259;27;19988;-84
2022/11/05 10:11:07;;;;;;;;;;;11.10;99.90;;;;;;5133941;27;19994;-84
2022/11/05 10:13:55;;;;;;;;;;;11.10;99.90;;;;;;5133701;27;20015;-84
2022/11/05 10:16:41;;;;;;;;;;;11.10;99.90;;;;;;5118911;27;19930;-84
2022/11/05 10:19:35;;;;;;;;;;;11.10;99.90;;;;;;5118912;27;19915;-84
2022/11/05 10:22:19;;;;;;;;;;;11.30;99.90;;;;;;5118520;27;19960;-84
2022/11/05 10:25:17;;;;;;;;;;;11.30;99.90;;;;;;5124177;27;19999;-84
2022/11/05 10:28:02;;;;;;;;;;;11.50;99.90;;;;;;5117451;27;19926;-84
2022/11/05 10:30:48;;;;;;;;;;;11.60;99.90;;;;;;5118264;27;19914;-84
2022/11/05 10:33:37;;;;;;;;;;;11.80;99.90;;;;;;5118514;27;20385;-84
2022/11/05 10:36:25;;;;;;;;;;;11.90;99.90;;;;;;5118354;27;20052;-84
2022/11/05 10:39:12;;;;;;;;;;;11.90;99.90;;;;;;5117890;27;19926;-83
2022/11/05 10:42:04;;;;;;;;;;;11.90;99.90;;;;;;5121200;27;20291;-84
2022/11/05 10:44:48;;;;;;;;;;;11.90;99.90;;;;;;5133605;27;19930;-83
2022/11/05 10:47:42;;;;;;;;;;;11.90;99.90;;;;;;5133951;27;19949;-84
2022/11/05 10:50:27;;;;;;;;;;;11.80;99.90;;;;;;5118254;27;19964;-84
2022/11/05 10:53:14;;;;;;;;;;;11.80;99.90;;;;;;5133055;27;19914;-84
2022/11/05 10:55:58;;;;;;;;;;;11.80;99.90;;;;;;5133259;27;19971;-84
2022/11/05 10:58:52;;;;;;;;;;;11.80;99.90;;;;;;5133731;27;19952;-83
2022/11/05 11:01:37;;;;;;;;;;;11.80;99.90;;;;;;5133486;27;19960;-84
2022/11/05 11:04:22;;;;;;;;;;;11.70;99.90;;;;;;5118297;28;19933;-84
2022/11/05 11:07:18;;;;;;;;;;;11.80;99.90;;;;;;5117349;28;20287;-84
2022/11/05 11:10:03;;;;;;;;;;;11.70;99.90;;;;;;5117364;28;19995;-84
2022/11/05 11:12:48;;;;;;;;;;;11.80;99.90;;;;;;5132812;28;19914;-84
2022/11/05 11:15:34;;;;;;;;;;;11.80;99.90;;;;;;5117863;28;20278;-84
2022/11/05 11:18:38;;;;;;;;;;;11.90;99.90;;;;;;5117423;28;20382;-84
2022/11/05 11:21:23;;;;;;;;;;;12.00;99.90;;;;;;5117758;28;19932;-84
2022/11/05 11:24:18;;;;;;;;;;;11.90;99.90;;;;;;5115994;28;19956;-84
2022/11/05 11:27:03;;;;;;;;;;;12.00;99.90;;;;;;5108729;28;19918;-83
2022/11/05 11:29:48;;;;;;;;;;;11.90;99.90;;;;;;5133455;28;19949;-84
2022/11/05 11:32:34;;;;;;;;;;;12.00;99.90;;;;;;5133273;28;19914;-84
2022/11/05 11:35:20;;;;;;;;;;;12.00;99.90;;;;;;5117333;28;19958;-84
2022/11/05 11:38:04;;;;;;;;;;;12.00;99.90;;;;;;5132423;28;19961;-84
2022/11/05 11:40:48;;;;;;;;;;;12.00;99.90;;;;;;5117724;28;19956;-84
2022/11/05 11:43:34;;;;;;;;;;;12.00;99.90;;;;;;5120357;28;19925;-83
2022/11/05 11:46:19;;;;;;;;;;;12.00;99.90;;;;;;5132627;28;20336;-83
2022/11/05 11:49:04;;;;;;;;;;;12.10;99.90;;;;;;5102618;28;19968;-84
2022/11/05 11:51:53;;;;;;;;;;;12.10;99.90;;;;;;5133076;28;19952;-83
2022/11/05 11:54:38;;;;;;;;;;;12.20;99.90;;;;;;5117591;27;19964;-84
2022/11/05 11:57:26;;;;;;;;;;;12.20;99.90;;;;;;5120904;27;19968;-83
2022/11/05 12:00:10;;;;;;;;;;;12.20;99.90;;;;;;5136422;27;19961;-83
2022/11/05 12:03:13;;;;;;;;;;;12.20;99.90;;;;;;5137005;27;20358;-83
2022/11/05 12:06:05;;;;;;;;;;;12.30;99.90;;;;;;5105017;28;20037;-84
2022/11/05 12:08:54;;;;;;;;;;;12.30;99.90;;;;;;5136095;27;19922;-84
2022/11/05 12:11:46;;;;;;;;;;;12.20;99.90;;;;;;5136540;27;20438;-85
2022/11/05 12:14:39;;;;;;;;;;;12.20;99.90;;;;;;5136752;27;19930;-84
2022/11/05 12:17:23;;;;;;;;;;;12.20;99.90;;;;;;5121762;27;19954;-84
2022/11/05 12:20:23;;;;;;;;;;;12.10;99.90;;;;;;5120475;27;20054;-85
2022/11/05 12:23:19;;;;;;;;;;;12.10;99.90;;;;;;5120577;27;19914;-85
2022/11/05 12:26:19;;;;;;;;;;;12.10;99.90;;;;;;5122047;27;19914;-84
2022/11/05 12:29:09;;;;;;;;;;;12.10;99.90;;;;;;5136408;27;19964;-85
2022/11/05 12:31:59;;;;;;;;;;;12.00;99.90;;;;;;5125580;27;19913;-84
2022/11/05 12:34:54;;;;;;;;;;;12.00;99.90;;;;;;5136157;27;20052;-84
2022/11/05 12:37:50;;;;;;;;;;;12.00;99.90;;;;;;5135876;27;20404;-84
2022/11/05 12:40:35;;;;;;;;;;;12.00;99.90;;;;;;5136193;27;19960;-84
2022/11/05 12:43:38;;;;;;;;;;;11.90;99.90;;;;;;5135490;27;19976;-84
2022/11/05 12:46:41;;;;;;;;;;;11.80;99.90;;;;;;5119853;27;19914;-84
2022/11/05 12:49:46;;;;;;;;;;;11.70;99.90;;;;;;5135437;27;20287;-84
2022/11/05 12:52:38;;;;;;;;;;;11.60;99.90;;;;;;5119152;27;20438;-84
2022/11/05 12:55:27;;;;;;;;;;;11.60;99.90;;;;;;5121794;27;20003;-84
2022/11/05 12:58:27;;;;;;;;;;;11.60;99.90;;;;;;5135423;27;19918;-86
2022/11/05 13:01:15;;;;;;;;;;;11.60;99.90;;;;;;5135573;27;19918;-85
2022/11/05 13:04:07;;;;;;;;;;;11.50;99.90;;;;;;5120214;27;20458;-84
2022/11/05 13:06:53;;;;;;;;;;;11.50;99.90;;;;;;5118822;27;19932;-84
2022/11/05 13:09:40;;;;;;;;;;;11.50;99.90;;;;;;5135416;27;20383;-84
2022/11/05 13:12:26;;;;;;;;;;;11.50;99.90;;;;;;5135151;27;19914;-84
2022/11/05 13:15:16;;;;;;;;;;;11.50;99.90;;;;;;5119817;27;19915;-84
2022/11/05 13:18:03;;;;;;;;;;;11.50;99.90;;;;;;5119967;27;19922;-83
2022/11/05 13:20:48;;;;;;;;;;;11.50;99.90;;;;;;5135265;27;20309;-84
2022/11/05 13:23:48;;;;;;;;;;;11.50;99.90;;;;;;5119133;27;20381;-84
2022/11/05 13:26:36;;;;;;;;;;;11.50;99.90;;;;;;5121760;27;19918;-84
2022/11/05 13:29:33;;;;;;;;;;;11.60;99.90;;;;;;5134595;27;20053;-84
2022/11/05 13:32:23;;;;;;;;;;;11.60;99.90;;;;;;5119278;27;20307;-86
2022/11/05 13:35:34;;;;;;;;;;;11.60;99.90;;;;;;5120029;27;19923;-83
2022/11/05 13:41:30;;;;;;;;;;;11.60;99.90;;;;;;5134346;27;19965;-84
2022/11/05 13:44:26;;;;;;;;;;;11.70;99.90;;;;;;5119383;27;19913;-84
2022/11/05 13:47:28;;;;;;;;;;;11.60;99.90;;;;;;5123914;27;20006;-83
2022/11/05 13:50:15;;;;;;;;;;;11.60;99.90;;;;;;5134848;27;19922;-84
2022/11/05 13:53:09;;;;;;;;;;;11.60;99.90;;;;;;5134642;27;19956;-84
2022/11/05 13:55:53;;;;;;;;;;;11.60;99.90;;;;;;5134739;27;20337;-84
2022/11/05 13:58:56;;;;;;;;;;;11.60;99.90;;;;;;5118382;27;19972;-84
2022/11/05 14:01:47;;;;;;;;;;;11.60;99.90;;;;;;5134012;27;20118;-84
2022/11/05 14:04:31;;;;;;;;;;;11.60;99.90;;;;;;5134130;27;19914;-83
2022/11/05 14:07:18;;;;;;;;;;;11.60;99.90;;;;;;5120569;27;19914;-83
2022/11/05 14:10:23;;;;;;;;;;;11.60;99.90;;;;;;5134181;27;20358;-84
2022/11/05 14:13:16;;;;;;;;;;;11.50;99.90;;;;;;5118945;27;20316;-84
2022/11/05 14:16:03;;;;;;;;;;;11.50;99.90;;;;;;5134407;27;20021;-84
2022/11/05 14:18:47;;;;;;;;;;;11.50;99.90;;;;;;5133685;27;19914;-84
2022/11/05 14:21:44;;;;;;;;;;;11.40;99.90;;;;;;5133831;27;19918;-84
2022/11/05 14:24:42;;;;;;;;;;;11.40;99.90;;;;;;5113779;27;20267;-83
2022/11/05 14:27:35;;;;;;;;;;;11.30;99.90;;;;;;5112598;27;20016;-84
2022/11/05 14:30:38;;;;;;;;;;;11.40;99.90;;;;;;5118733;27;20266;-84
2022/11/05 14:33:25;;;;;;;;;;;11.30;99.90;;;;;;5134106;27;19964;-84
2022/11/05 14:36:19;;;;;;;;;;;11.20;99.90;;;;;;5118390;27;19975;-83
2022/11/05 14:40:59;;;;;;;8.73;3.40;;;11.30;99.90;;;;;;5110296;27;1971204;-84
2022/11/05 14:43:56;;;;;;;6.65;3.58;;;11.40;99.90;;;;;;5161327;27;20074;-83
2022/11/05 14:46:42;;;;;;;9.27;3.90;;;11.30;99.90;;;;;;5158923;27;20120;-84
2022/11/05 14:49:36;;;;;;;9.25;4.07;;;11.20;99.90;;;;;;5150913;27;20057;-82
2022/11/05 14:52:21;;;;;;;11.98;4.50;;;;;;;;;;5140599;27;20050;-84
2022/11/05 14:55:21;;;;;;;7.35;3.65;;;11.20;99.90;;;;;;5135137;27;20042;-83
2022/11/05 14:58:26;;;;;;;9.57;3.85;;;11.10;99.90;;;;;;5145517;27;20041;-83
2022/11/05 15:01:22;;;;;;;8.85;3.72;;;11.20;99.90;;;;;;5151043;27;20091;-82
2022/11/05 15:04:29;;;;;;;8.95;3.40;;;11.00;99.90;;;;;;5138935;27;20395;-82
2022/11/05 15:07:23;;;;;;;7.18;4.28;;;11.10;99.90;;;;;;5150695;27;20034;-82
2022/11/05 15:10:16;;;;;;;7.07;3.70;;;11.00;99.90;;;;;;5150618;27;20042;-83
2022/11/05 15:13:03;;;;;;;11.45;3.83;;;11.00;99.90;;;;;;5150680;27;20260;-83
2022/11/05 15:15:49;;;;;;;11.68;4.20;;;;;;;;;;5149970;27;20038;-82
2022/11/05 15:18:44;;;;;;;9.65;4.63;;;10.80;99.90;;;;;;5134062;27;20065;-83
2022/11/05 15:21:33;;;;;;;13.43;5.78;;;10.90;99.90;;;;;;5150659;27;20049;-82
2022/11/05 15:24:18;;;;;;;8.63;4.45;;;10.80;99.90;;;;;;5150167;27;20088;-82
2022/11/05 15:27:09;;;;;;;8.25;4.20;;;10.90;99.90;;;;;;5134810;27;20125;-82
2022/11/05 15:29:53;;;;;;;9.82;4.55;;;;;;;;;;5143344;27;20037;-82
2022/11/05 15:32:38;;;;;;;9.50;4.55;;;;;;;;;;5170369;27;20037;-82
2022/11/05 15:35:28;;;;;;;9.77;4.53;;;10.70;99.90;;;;;;5140971;27;20042;-82
2022/11/05 15:38:42;;;;;;;10.50;4.05;;;10.60;99.90;;;;;;5170790;27;20026;-82
2022/11/05 15:41:32;;;;;;;10.63;4.10;;;10.60;99.90;;;;;;5152516;27;20546;-82
2022/11/05 15:44:50;;;;;;;6.68;4.28;;;10.10;99.90;;;;;;5170956;27;20042;-81
2022/11/05 15:47:34;;;;;;;7.95;4.80;;;;;;;;;;5124739;27;20604;-82
2022/11/05 15:50:18;;;;;;;8.45;4.32;;;;;;;;;;5137789;27;20394;-83
2022/11/05 15:53:15;;;;;;;9.15;4.40;;;10.20;99.90;;;;;;5140941;27;20041;-82
2022/11/05 15:56:08;;;;;;;11.52;4.95;;;10.30;99.90;;;;;;5156198;27;20056;-83
2022/11/05 15:58:58;;;;;;;10.13;5.30;;;10.20;99.90;;;;;;5135850;27;20566;-83
2022/11/05 16:02:23;;;;;;;7.95;4.68;;;10.20;99.90;;;;;;5126633;27;20542;-84
2022/11/05 16:05:13;;;;;;;11.13;4.57;;;10.30;99.90;;;;;;5134354;27;20045;-83
2022/11/05 16:07:58;;;;;;;11.27;5.22;;;10.10;99.90;;;;;;5141793;27;20065;-83
2022/11/05 16:10:47;;;;;;;9.32;5.13;;;10.10;99.90;;;;;;5133790;27;20114;-82
2022/11/05 16:13:40;;;;;;;9.13;5.07;;;10.00;99.90;;;;;;5119753;27;20481;-82
2022/11/05 16:16:32;;;;;;;9.52;5.22;;;10.00;99.90;;;;;;5119970;27;20087;-82
2022/11/05 16:19:38;;;;;;;12.52;5.30;;;9.90;99.90;;;;;;5135311;27;20042;-83
2022/11/05 16:22:23;;;;;;;11.88;5.20;;;;;;;;;;5135259;27;20038;-82
2022/11/05 16:25:29;;;;;;;8.07;5.18;;;9.90;99.90;;;;;;5135402;27;20114;-82
2022/11/05 16:28:28;;;;;;;8.68;4.88;;;10.10;99.90;;;;;;5127274;27;20037;-82
2022/11/05 16:31:13;;;;;;;10.38;5.47;;;;;;;;;;5149907;27;20041;-83
2022/11/05 16:33:58;;;;;;;11.10;5.25;;;9.80;99.90;;;;;;5106964;27;20084;-84
2022/11/05 16:36:42;;;;;;;12.38;5.90;;;;;;;;;;5148685;27;20403;-85
2022/11/05 16:39:27;;;;;;;9.45;5.30;;;;;;;;;;5149239;27;20034;-83
2022/11/05 16:42:24;;;;;;;13.38;5.47;;;;;;;;;;5126419;27;20046;-81
2022/11/05 16:45:12;;;;;;;10.50;5.53;;;9.70;99.90;;;;;;5134879;27;20080;-83
2022/11/05 16:47:57;;;;;;;11.73;6.60;;;;;;;;;;5129822;27;20455;-83
2022/11/05 16:50:41;;;;;;;15.30;7.60;;;;;;;;;;5134921;27;20046;-81
2022/11/05 16:53:26;;;;;;;12.80;6.30;;;;;;;;;;5134772;27;20033;-82
2022/11/05 16:56:20;;;;;;;10.23;6.25;;;9.60;99.90;;;;;;5112161;27;20540;-82
2022/11/05 16:59:04;;;;;;;;;;;9.70;99.90;;;;;;5134444;27;20057;-82
2022/11/05 17:01:49;;;;;;;12.10;7.07;;;;;;;;;;5118252;27;20283;-83
2022/11/05 17:04:34;;;;;;;11.48;6.88;;;;;;;;;;5118785;27;20042;-82